createdAt,value
2023-02-13T00:00:39.057Z,30.33
2023-02-13T00:03:07.056Z,28.30
2023-02-13T00:05:34.929Z,28.13
2023-02-13T00:08:02.656Z,28.33
2023-02-13T00:10:30.373Z,28.27
2023-02-13T00:12:59.449Z,28.63
2023-02-13T00:15:27.254Z,28.60
2023-02-13T00:17:54.996Z,28.00
2023-02-13T00:20:23.330Z,27.80
2023-02-13T00:22:51.092Z,27.30
2023-02-13T00:25:18.944Z,28.47
2023-02-13T00:27:46.713Z,27.23
2023-02-13T00:30:19.159Z,26.13
2023-02-13T00:32:47.146Z,27.23
2023-02-13T00:35:14.973Z,28.00
2023-02-13T00:37:42.742Z,25.40
2023-02-13T00:40:14.201Z,24.83
2023-02-13T00:42:41.934Z,26.03
2023-02-13T00:45:10.459Z,26.90
2023-02-13T00:47:39.526Z,25.37
2023-02-13T00:50:08.106Z,25.80
2023-02-13T00:52:35.819Z,26.70
2023-02-13T00:55:03.611Z,24.53
2023-02-13T00:57:31.873Z,25.53
2023-02-13T00:59:59.783Z,23.70
2023-02-13T01:02:27.509Z,23.90
2023-02-13T01:04:56.607Z,24.00
2023-02-13T01:07:24.636Z,25.43
2023-02-13T01:09:52.356Z,22.20
2023-02-13T01:12:20.080Z,22.03
2023-02-13T01:14:47.813Z,17.77
2023-02-13T01:17:18.977Z,17.47
2023-02-13T01:19:46.695Z,17.93
2023-02-13T01:22:15.885Z,18.00
2023-02-13T01:24:43.594Z,17.13
2023-02-13T01:27:11.378Z,14.40
2023-02-13T01:29:39.113Z,13.23
2023-02-13T01:32:10.270Z,11.63
2023-02-13T01:34:38.031Z,9.10
2023-02-13T01:37:05.729Z,9.00
2023-02-13T01:39:35.085Z,9.63
2023-02-13T01:42:03.092Z,9.13
2023-02-13T01:44:53.526Z,8.77
2023-02-13T01:47:27.211Z,7.40
2023-02-13T01:50:04.270Z,6.80
2023-02-13T01:52:32.450Z,6.97
2023-02-13T01:55:01.714Z,6.47
2023-02-13T01:57:34.692Z,6.10
2023-02-13T02:00:07.212Z,5.63
2023-02-13T02:02:38.726Z,5.87
2023-02-13T02:05:08.614Z,6.00
2023-02-13T02:07:38.744Z,5.10
2023-02-13T02:10:11.249Z,5.00
2023-02-13T02:12:43.274Z,5.70
2023-02-13T02:15:11.263Z,5.20
2023-02-13T02:17:38.979Z,6.33
2023-02-13T02:20:21.495Z,5.10
2023-02-13T02:23:31.257Z,4.43
2023-02-13T02:26:41.993Z,4.43
2023-02-13T02:29:35.085Z,4.40
2023-02-13T02:32:18.536Z,4.43
2023-02-13T02:34:55.579Z,4.30
2023-02-13T02:37:40.946Z,4.80
2023-02-13T02:40:19.999Z,3.93
2023-02-13T02:43:01.842Z,4.00
2023-02-13T02:45:36.117Z,4.20
2023-02-13T02:48:30.755Z,4.30
2023-02-13T02:51:03.145Z,4.37
2023-02-13T02:53:39.326Z,4.77
2023-02-13T02:56:13.257Z,4.70
2023-02-13T02:59:04.173Z,4.70
2023-02-13T03:01:52.701Z,4.90
2023-02-13T03:04:44.474Z,5.33
2023-02-13T03:07:16.002Z,5.10
2023-02-13T03:10:05.197Z,4.90
2023-02-13T03:12:56.122Z,5.63
2023-02-13T03:15:26.559Z,5.33
2023-02-13T03:18:12.405Z,6.53
2023-02-13T03:21:05.111Z,7.33
2023-02-13T03:23:44.532Z,6.93
2023-02-13T03:26:33.249Z,7.13
2023-02-13T03:29:28.183Z,6.83
2023-02-13T03:32:03.299Z,8.43
2023-02-13T03:34:52.895Z,8.60
2023-02-13T03:37:45.988Z,9.33
2023-02-13T03:40:19.156Z,9.10
2023-02-13T03:42:53.762Z,10.10
2023-02-13T03:45:46.059Z,11.43
2023-02-13T03:48:50.200Z,10.50
2023-02-13T03:51:22.282Z,9.93
2023-02-13T03:53:56.035Z,12.10
2023-02-13T03:56:44.193Z,11.87
2023-02-13T03:59:20.637Z,11.97
2023-02-13T04:01:55.035Z,12.17
2023-02-13T04:04:31.859Z,12.43
2023-02-13T04:07:03.927Z,13.87
2023-02-13T04:09:36.516Z,13.67
2023-02-13T04:12:11.134Z,13.53
2023-02-13T04:14:42.454Z,13.30
2023-02-13T04:17:14.831Z,14.23
2023-02-13T04:19:42.789Z,13.67
2023-02-13T04:22:13.379Z,13.23
2023-02-13T04:24:42.513Z,14.00
2023-02-13T04:27:14.949Z,14.20
2023-02-13T04:29:42.836Z,14.47
2023-02-13T04:32:11.262Z,14.53
2023-02-13T04:34:39.481Z,14.27
2023-02-13T04:37:07.183Z,14.40
2023-02-13T04:39:35.077Z,13.27
2023-02-13T04:42:04.298Z,14.50
2023-02-13T04:44:32.005Z,14.43
2023-02-13T04:46:59.720Z,14.83
2023-02-13T04:49:27.499Z,14.17
2023-02-13T04:51:55.221Z,14.70
2023-02-13T04:54:22.961Z,13.97
2023-02-13T04:56:50.699Z,15.43
2023-02-13T04:59:19.766Z,15.93
2023-02-13T05:01:47.579Z,14.33
2023-02-13T05:04:16.415Z,14.90
2023-02-13T05:06:44.335Z,15.20
2023-02-13T05:09:12.216Z,15.93
2023-02-13T05:11:39.982Z,15.60
2023-02-13T05:14:07.713Z,16.97
2023-02-13T05:16:36.889Z,15.93
2023-02-13T05:19:04.862Z,16.30
2023-02-13T05:21:50.067Z,16.40
2023-02-13T05:24:20.322Z,16.73
2023-02-13T05:26:48.350Z,16.90
2023-02-13T05:29:22.837Z,16.57
2023-02-13T05:31:54.318Z,16.23
2023-02-13T05:34:23.161Z,15.40
2023-02-13T05:36:51.300Z,16.43
2023-02-13T05:39:19.080Z,17.10
2023-02-13T05:41:48.066Z,16.03
2023-02-13T05:44:16.648Z,16.57
2023-02-13T05:46:46.039Z,16.30
2023-02-13T05:49:16.455Z,16.17
2023-02-13T05:51:46.392Z,17.93
2023-02-13T05:54:14.294Z,16.63
2023-02-13T05:56:42.433Z,17.17
2023-02-13T05:59:10.178Z,17.20
2023-02-13T06:01:37.909Z,15.97
2023-02-13T06:04:06.045Z,15.57
2023-02-13T06:06:38.145Z,16.50
2023-02-13T06:09:05.987Z,17.27
2023-02-13T06:11:33.747Z,15.53
2023-02-13T06:14:01.473Z,17.10
2023-02-13T06:16:31.329Z,16.93
2023-02-13T06:18:59.083Z,17.97
2023-02-13T06:21:26.995Z,18.77
2023-02-13T06:23:56.030Z,18.37
2023-02-13T06:26:24.230Z,17.60
2023-02-13T06:28:52.016Z,18.80
2023-02-13T06:31:19.782Z,16.97
2023-02-13T06:33:47.564Z,17.77
2023-02-13T06:36:15.304Z,16.40
2023-02-13T06:38:43.102Z,18.20
2023-02-13T06:41:12.296Z,17.23
2023-02-13T06:43:40.950Z,16.83
2023-02-13T06:46:09.673Z,17.57
2023-02-13T06:48:37.659Z,16.50
2023-02-13T06:51:05.881Z,17.07
2023-02-13T06:53:33.665Z,17.00
2023-02-13T06:56:05.999Z,17.73
2023-02-13T06:58:35.630Z,17.83
2023-02-13T07:01:03.389Z,18.50
2023-02-13T07:03:34.450Z,16.57
2023-02-13T07:06:02.192Z,17.97
2023-02-13T07:08:30.805Z,18.17
2023-02-13T07:10:58.726Z,16.73
2023-02-13T07:13:26.656Z,16.90
2023-02-13T07:15:58.073Z,15.20
2023-02-13T07:18:25.812Z,16.57
2023-02-13T07:20:53.583Z,16.70
2023-02-13T07:23:21.269Z,17.00
2023-02-13T07:25:49.036Z,17.20
2023-02-13T07:28:16.739Z,17.40
2023-02-13T07:30:44.507Z,18.60
2023-02-13T07:33:13.803Z,18.07
2023-02-13T07:35:46.797Z,18.60
2023-02-13T07:38:14.537Z,17.47
2023-02-13T07:40:42.315Z,16.07
2023-02-13T07:43:10.530Z,17.27
2023-02-13T07:45:38.443Z,15.67
2023-02-13T07:48:06.405Z,16.00
2023-02-13T07:50:35.466Z,17.37
2023-02-13T07:53:03.409Z,16.17
2023-02-13T07:55:32.668Z,16.10
2023-02-13T07:58:01.970Z,15.13
2023-02-13T08:00:29.833Z,14.30
2023-02-13T08:03:00.469Z,14.37
2023-02-13T08:05:28.514Z,14.13
2023-02-13T08:07:57.682Z,12.40
2023-02-13T08:10:43.009Z,13.53
2023-02-13T08:13:12.671Z,14.20
2023-02-13T08:15:40.482Z,13.67
2023-02-13T08:18:08.236Z,13.50
2023-02-13T08:20:36.104Z,13.37
2023-02-13T08:23:06.234Z,12.77
2023-02-13T08:25:34.384Z,13.17
2023-02-13T08:28:02.574Z,11.67
2023-02-13T08:30:30.302Z,11.43
2023-02-13T08:32:58.045Z,10.83
2023-02-13T08:35:29.586Z,10.67
2023-02-13T08:37:57.563Z,13.07
2023-02-13T08:40:26.630Z,12.93
2023-02-13T08:42:55.854Z,14.00
2023-02-13T08:45:24.658Z,13.90
2023-02-13T08:47:52.375Z,12.03
2023-02-13T08:50:20.328Z,13.37
2023-02-13T08:52:48.022Z,14.17
2023-02-13T08:55:15.868Z,12.17
2023-02-13T08:57:45.000Z,12.60
2023-02-13T09:00:13.711Z,11.50
2023-02-13T09:02:41.436Z,13.10
2023-02-13T09:05:09.308Z,13.50
2023-02-13T09:07:37.221Z,12.30
2023-02-13T09:10:05.527Z,11.90
2023-02-13T09:12:33.345Z,11.33
2023-02-13T09:15:02.414Z,12.20
2023-02-13T09:17:30.279Z,12.87
2023-02-13T09:19:57.994Z,12.70
2023-02-13T09:22:25.800Z,12.13
2023-02-13T09:24:53.543Z,12.43
2023-02-13T09:27:21.283Z,12.07
2023-02-13T09:29:49.055Z,12.10
2023-02-13T09:32:18.134Z,13.47
2023-02-13T09:34:45.847Z,13.23
2023-02-13T09:37:13.608Z,12.63
2023-02-13T09:39:41.430Z,12.20
2023-02-13T09:42:20.768Z,13.40
2023-02-13T09:44:50.159Z,14.13
2023-02-13T09:47:28.564Z,14.20
2023-02-13T09:49:59.930Z,13.60
2023-02-13T09:52:33.011Z,13.70
2023-02-13T09:55:02.088Z,12.97
2023-02-13T09:57:34.861Z,13.20
2023-02-13T10:00:13.132Z,12.00
2023-02-13T10:02:56.270Z,13.13
2023-02-13T10:05:40.700Z,12.20
2023-02-13T10:08:17.366Z,12.80
2023-02-13T10:10:52.840Z,13.10
2023-02-13T10:13:36.578Z,13.40
2023-02-13T10:16:10.628Z,13.83
2023-02-13T10:18:48.190Z,13.60
2023-02-13T10:21:16.725Z,12.50
2023-02-13T10:23:48.163Z,12.97
2023-02-13T10:26:22.112Z,12.63
2023-02-13T10:29:12.166Z,12.67
2023-02-13T10:31:41.486Z,12.93
2023-02-13T10:34:16.486Z,14.07
2023-02-13T10:36:46.664Z,13.83
2023-02-13T10:39:24.652Z,13.07
2023-02-13T10:41:54.488Z,12.67
2023-02-13T10:44:39.965Z,12.57
2023-02-13T10:47:21.396Z,11.50
2023-02-13T10:50:16.505Z,12.13
2023-02-13T10:52:52.440Z,11.53
2023-02-13T10:55:32.362Z,11.83
2023-02-13T10:58:09.150Z,11.43
2023-02-13T11:00:43.303Z,11.70
2023-02-13T11:03:19.773Z,11.27
2023-02-13T11:05:49.986Z,12.30
2023-02-13T11:08:22.059Z,10.23
2023-02-13T11:10:50.395Z,10.73
2023-02-13T11:13:20.614Z,9.83
2023-02-13T11:16:00.148Z,10.37
2023-02-13T11:18:30.015Z,10.53
2023-02-13T11:21:08.863Z,9.70
2023-02-13T11:23:41.473Z,9.67
2023-02-13T11:26:12.731Z,10.00
2023-02-13T11:28:49.345Z,10.10
2023-02-13T11:31:25.340Z,10.00
2023-02-13T11:33:53.545Z,9.73
2023-02-13T11:36:28.326Z,9.40
2023-02-13T11:39:01.524Z,8.50
2023-02-13T11:41:30.822Z,9.03
2023-02-13T11:44:02.141Z,8.60
2023-02-13T11:46:32.149Z,8.80
2023-02-13T11:49:03.090Z,9.07
2023-02-13T11:51:42.676Z,8.77
2023-02-13T11:54:31.290Z,9.13
2023-02-13T11:57:04.682Z,8.90
2023-02-13T11:59:40.307Z,9.20
2023-02-13T12:02:17.080Z,9.10
2023-02-13T12:04:45.311Z,9.00
2023-02-13T12:07:21.122Z,8.57
2023-02-13T12:09:52.004Z,8.97
2023-02-13T12:12:26.613Z,9.90
2023-02-13T12:14:54.439Z,9.40
2023-02-13T12:17:31.699Z,9.73
2023-02-13T12:20:00.266Z,9.13
2023-02-13T12:22:38.812Z,8.87
2023-02-13T12:26:04.101Z,10.00
2023-02-13T12:28:46.043Z,9.63
2023-02-13T12:31:39.599Z,8.80
2023-02-13T12:34:52.501Z,9.23
2023-02-13T12:37:31.364Z,10.97
2023-02-13T12:40:24.009Z,11.00
2023-02-13T12:43:09.143Z,9.33
2023-02-13T12:45:42.294Z,10.20
2023-02-13T12:48:26.267Z,11.70
2023-02-13T12:51:03.787Z,10.33
2023-02-13T12:53:49.144Z,9.77
2023-02-13T12:56:51.003Z,8.33
2023-02-13T12:59:28.593Z,9.97
2023-02-13T13:02:24.021Z,9.43
2023-02-13T13:05:05.070Z,10.30
2023-02-13T13:07:58.376Z,24.33
2023-02-13T13:10:42.913Z,24.13
2023-02-13T13:13:23.289Z,9.20
2023-02-13T13:16:01.344Z,9.00
2023-02-13T13:18:40.393Z,11.83
2023-02-13T13:21:33.874Z,10.57
2023-02-13T13:24:08.542Z,8.50
2023-02-13T13:26:39.706Z,8.70
2023-02-13T13:29:14.757Z,9.33
2023-02-13T13:31:43.940Z,9.27
2023-02-13T13:34:20.781Z,8.00
2023-02-13T13:36:53.925Z,8.57
2023-02-13T13:39:34.510Z,10.10
2023-02-13T13:42:13.376Z,8.07
2023-02-13T13:45:05.262Z,9.10
2023-02-13T13:47:58.260Z,8.83
2023-02-13T13:50:28.660Z,15.90
2023-02-13T13:53:14.780Z,11.23
2023-02-13T13:56:03.260Z,8.57
2023-02-13T13:58:36.892Z,9.47
2023-02-13T14:01:29.211Z,9.10
2023-02-13T14:03:58.283Z,8.87
2023-02-13T14:06:27.662Z,7.90
2023-02-13T14:09:37.854Z,8.10
2023-02-13T14:12:39.538Z,8.63
2023-02-13T14:15:44.683Z,8.20
2023-02-13T14:18:21.573Z,8.27
2023-02-13T14:20:53.893Z,8.13
2023-02-13T14:23:50.252Z,7.90
2023-02-13T14:26:29.658Z,8.57
2023-02-13T14:29:02.781Z,8.30
2023-02-13T14:31:32.713Z,9.63
2023-02-13T14:34:04.060Z,9.83
2023-02-13T14:36:34.090Z,9.33
2023-02-13T14:39:05.605Z,14.50
2023-02-13T14:41:57.723Z,9.77
2023-02-13T14:44:31.419Z,8.43
2023-02-13T14:47:01.150Z,8.83
2023-02-13T14:49:32.622Z,8.17
2023-02-13T14:52:03.985Z,8.17
2023-02-13T14:54:35.641Z,9.03
2023-02-13T14:57:11.038Z,8.77
2023-02-13T14:59:45.033Z,9.20
2023-02-13T15:02:22.245Z,9.30
2023-02-13T15:04:57.744Z,8.47
2023-02-13T15:07:29.849Z,8.93
2023-02-13T15:10:01.698Z,8.83
2023-02-13T15:12:31.887Z,9.03
2023-02-13T15:15:01.341Z,9.27
2023-02-13T15:17:32.823Z,9.13
2023-02-13T15:20:09.821Z,8.50
2023-02-13T15:22:40.662Z,8.67
2023-02-13T15:25:10.045Z,9.07
2023-02-13T15:27:42.775Z,9.00
2023-02-13T15:30:20.702Z,9.27
2023-02-13T15:32:55.465Z,7.90
2023-02-13T15:35:27.601Z,8.70
2023-02-13T15:37:56.045Z,9.00
2023-02-13T15:40:26.271Z,9.67
2023-02-13T15:42:55.250Z,8.97
2023-02-13T15:45:25.799Z,9.87
2023-02-13T15:47:56.026Z,9.57
2023-02-13T15:50:30.061Z,9.40
2023-02-13T15:52:58.676Z,8.97
2023-02-13T15:55:29.042Z,9.37
2023-02-13T15:58:00.199Z,9.93
2023-02-13T16:00:31.371Z,8.97
2023-02-13T16:03:01.430Z,9.20
2023-02-13T16:05:40.386Z,9.37
2023-02-13T16:08:28.988Z,9.80
2023-02-13T16:11:27.347Z,11.70
2023-02-13T16:14:01.097Z,10.20
2023-02-13T16:16:31.739Z,9.60
2023-02-13T16:18:59.696Z,9.47
2023-02-13T16:21:31.354Z,9.70
2023-02-13T16:24:01.763Z,8.93
2023-02-13T16:26:31.470Z,10.37
2023-02-13T16:28:59.249Z,9.17
2023-02-13T16:31:27.195Z,9.17
2023-02-13T16:33:55.198Z,9.47
2023-02-13T16:36:39.213Z,8.70
2023-02-13T16:39:18.796Z,8.27
2023-02-13T16:41:46.793Z,10.20
2023-02-13T16:44:26.807Z,11.30
2023-02-13T16:47:17.612Z,9.10
2023-02-13T16:49:53.991Z,10.70
2023-02-13T16:52:26.557Z,9.73
2023-02-13T16:54:56.709Z,11.90
2023-02-13T16:57:30.162Z,10.03
2023-02-13T17:00:05.327Z,8.40
2023-02-13T17:02:34.832Z,10.03
2023-02-13T17:05:21.720Z,10.33
2023-02-13T17:07:52.991Z,10.10
2023-02-13T17:10:23.575Z,11.13
2023-02-13T17:12:52.662Z,9.53
2023-02-13T17:15:22.535Z,9.23
2023-02-13T17:17:51.646Z,10.63
2023-02-13T17:20:21.546Z,9.03
2023-02-13T17:22:53.203Z,8.63
2023-02-13T17:25:23.141Z,9.97
2023-02-13T17:27:52.758Z,9.23
2023-02-13T17:30:22.388Z,8.60
2023-02-13T17:32:54.788Z,9.60
2023-02-13T17:35:22.583Z,9.20
2023-02-13T17:37:51.717Z,9.77
2023-02-13T17:40:21.297Z,10.07
2023-02-13T17:42:52.730Z,9.00
2023-02-13T17:45:23.625Z,9.27
2023-02-13T17:47:51.546Z,10.00
2023-02-13T17:50:19.651Z,9.70
2023-02-13T17:52:49.053Z,8.90
2023-02-13T17:55:21.119Z,10.00
2023-02-13T17:57:49.470Z,9.73
2023-02-13T18:00:21.915Z,9.03
2023-02-13T18:02:51.010Z,22.57
2023-02-13T18:05:20.175Z,30.23
2023-02-13T18:07:48.967Z,11.03
2023-02-13T18:10:20.298Z,11.40
2023-02-13T18:12:49.553Z,10.97
2023-02-13T18:15:17.890Z,10.03
2023-02-13T18:17:45.908Z,11.70
2023-02-13T18:20:15.974Z,12.07
2023-02-13T18:22:44.223Z,11.23
2023-02-13T18:25:13.311Z,11.73
2023-02-13T18:27:42.551Z,10.63
2023-02-13T18:30:12.712Z,10.50
2023-02-13T18:32:40.567Z,10.70
2023-02-13T18:35:09.130Z,9.90
2023-02-13T18:37:39.152Z,10.73
2023-02-13T18:40:08.518Z,19.23
2023-02-13T18:42:36.873Z,13.90
2023-02-13T18:45:06.449Z,10.47
2023-02-13T18:47:34.207Z,11.07
2023-02-13T18:50:01.954Z,9.13
2023-02-13T18:52:29.663Z,9.87
2023-02-13T18:54:57.511Z,9.17
2023-02-13T18:57:25.230Z,9.80
2023-02-13T18:59:53.100Z,9.17
2023-02-13T19:02:22.323Z,9.23
2023-02-13T19:04:50.089Z,12.60
2023-02-13T19:07:31.977Z,13.43
2023-02-13T19:09:59.726Z,13.67
2023-02-13T19:12:27.657Z,15.10
2023-02-13T19:14:55.437Z,15.90
2023-02-13T19:17:25.024Z,15.57
2023-02-13T19:19:52.771Z,15.83
2023-02-13T19:22:20.504Z,14.80
2023-02-13T19:24:48.469Z,14.63
2023-02-13T19:27:17.529Z,14.50
2023-02-13T19:29:45.391Z,15.10
2023-02-13T19:32:13.217Z,14.07
2023-02-13T19:34:42.652Z,12.53
2023-02-13T19:37:10.447Z,12.17
2023-02-13T19:39:38.433Z,12.37
2023-02-13T19:42:06.529Z,11.70
2023-02-13T19:44:34.310Z,12.17
2023-02-13T19:47:02.047Z,12.20
2023-02-13T19:49:29.776Z,14.53
2023-02-13T19:51:58.939Z,14.83
2023-02-13T19:54:26.736Z,20.13
2023-02-13T19:57:00.258Z,22.53
2023-02-13T19:59:28.367Z,16.57
2023-02-13T20:01:56.185Z,13.93
2023-02-13T20:04:23.959Z,12.77
2023-02-13T20:06:57.560Z,14.87
2023-02-13T20:09:26.824Z,13.40
2023-02-13T20:11:54.538Z,14.73
2023-02-13T20:14:22.256Z,13.97
2023-02-13T20:16:49.981Z,13.50
2023-02-13T20:19:17.692Z,14.33
2023-02-13T20:21:45.898Z,13.97
2023-02-13T20:24:14.058Z,14.80
2023-02-13T20:26:43.674Z,13.73
2023-02-13T20:29:11.524Z,13.17
2023-02-13T20:31:42.961Z,13.70
2023-02-13T20:34:11.395Z,14.73
2023-02-13T20:36:39.176Z,15.00
2023-02-13T20:39:08.807Z,14.27
2023-02-13T20:41:38.200Z,13.77
2023-02-13T20:44:09.423Z,13.47
2023-02-13T20:46:39.697Z,13.73
2023-02-13T20:49:07.887Z,13.60
2023-02-13T20:51:36.232Z,14.63
2023-02-13T20:54:05.088Z,13.40
2023-02-13T20:56:33.171Z,13.40
2023-02-13T20:59:02.525Z,13.07
2023-02-13T21:01:33.439Z,15.80
2023-02-13T21:04:01.773Z,15.30
2023-02-13T21:06:31.756Z,15.83
2023-02-13T21:08:59.801Z,14.90
2023-02-13T21:11:29.917Z,13.57
2023-02-13T21:13:58.306Z,13.50
2023-02-13T21:16:28.299Z,12.43
2023-02-13T21:18:59.638Z,13.00
2023-02-13T21:21:29.421Z,14.17
2023-02-13T21:23:59.299Z,14.80
2023-02-13T21:26:27.604Z,15.53
2023-02-13T21:28:56.007Z,15.47
2023-02-13T21:31:29.064Z,15.20
2023-02-13T21:34:00.560Z,14.87
2023-02-13T21:36:28.461Z,15.30
2023-02-13T21:38:56.282Z,15.03
2023-02-13T21:41:24.155Z,16.60
2023-02-13T21:43:52.186Z,15.23
2023-02-13T21:46:22.178Z,15.53
2023-02-13T21:48:53.897Z,15.00
2023-02-13T21:51:24.466Z,15.70
2023-02-13T21:53:53.096Z,14.13
2023-02-13T21:56:22.454Z,13.37
2023-02-13T21:58:50.698Z,13.43
2023-02-13T22:01:26.626Z,13.13
2023-02-13T22:03:57.300Z,13.47
2023-02-13T22:06:28.244Z,14.00
2023-02-13T22:09:00.556Z,14.37
2023-02-13T22:11:28.987Z,14.93
2023-02-13T22:13:57.568Z,15.03
2023-02-13T22:16:25.742Z,14.40
2023-02-13T22:18:53.587Z,15.67
2023-02-13T22:21:23.096Z,15.27
2023-02-13T22:23:52.581Z,16.07
2023-02-13T22:26:21.803Z,15.20
2023-02-13T22:28:50.071Z,15.50
2023-02-13T22:31:18.592Z,15.80
2023-02-13T22:33:49.977Z,15.17
2023-02-13T22:36:26.629Z,14.43
2023-02-13T22:38:55.787Z,14.23
2023-02-13T22:41:25.744Z,14.53
2023-02-13T22:43:55.135Z,14.23
2023-02-13T22:46:25.038Z,15.07
2023-02-13T22:48:53.411Z,16.17
2023-02-13T22:51:23.030Z,14.43
2023-02-13T22:53:53.353Z,15.73
2023-02-13T22:56:23.218Z,15.23
2023-02-13T22:58:51.197Z,14.20
2023-02-13T23:01:22.661Z,14.27
2023-02-13T23:03:50.449Z,14.67
2023-02-13T23:06:19.318Z,16.43
2023-02-13T23:08:49.040Z,16.33
2023-02-13T23:11:32.037Z,14.97
2023-02-13T23:14:01.617Z,16.63
2023-02-13T23:16:50.601Z,15.67
2023-02-13T23:19:17.423Z,15.47
2023-02-13T23:21:45.162Z,17.60
2023-02-13T23:24:13.043Z,17.23
2023-02-13T23:26:40.758Z,16.20
2023-02-13T23:29:10.490Z,15.37
2023-02-13T23:31:38.815Z,15.13
2023-02-13T23:34:06.658Z,16.77
2023-02-13T23:36:34.462Z,16.13
2023-02-13T23:39:02.240Z,16.60
2023-02-13T23:41:30.152Z,16.73
2023-02-13T23:43:57.923Z,16.23
2023-02-13T23:46:27.197Z,16.27
2023-02-13T23:48:58.362Z,16.40
2023-02-13T23:51:26.477Z,15.57
2023-02-13T23:53:56.161Z,15.23
2023-02-13T23:56:24.696Z,17.17
2023-02-13T23:58:52.497Z,16.93
